sensor_id;sensor_type;location;lat;lon;timestamp;temperature;humidity
1806;DHT22;901;48.142;11.516;2023-04-01T00:01:26;8.10;99.90
1806;DHT22;901;48.142;11.516;2023-04-01T00:03:55;8.10;99.90
1806;DHT22;901;48.142;11.516;2023-04-01T00:06:22;8.10;99.90
1806;DHT22;901;48.142;11.516;2023-04-01T00:08:49;8.10;99.90
1806;DHT22;901;48.142;11.516;2023-04-01T00:11:16;8.00;99.90
1806;DHT22;901;48.142;11.516;2023-04-01T00:13:44;8.00;99.90
1806;DHT22;901;48.142;11.516;2023-04-01T00:16:11;7.90;99.90
1806;DHT22;901;48.142;11.516;2023-04-01T00:18:38;7.90;99.90
1806;DHT22;901;48.142;11.516;2023-04-01T00:21:07;7.90;99.90
1806;DHT22;901;48.142;11.516;2023-04-01T00:23:34;7.90;99.90
1806;DHT22;901;48.142;11.516;2023-04-01T00:26:02;7.90;99.90
1806;DHT22;901;48.142;11.516;2023-04-01T00:28:29;7.80;99.90
1806;DHT22;901;48.142;11.516;2023-04-01T00:30:56;7.80;99.90
1806;DHT22;901;48.142;11.516;2023-04-01T00:33:23;7.70;99.90
1806;DHT22;901;48.142;11.516;2023-04-01T00:35:50;7.70;99.90
1806;DHT22;901;48.142;11.516;2023-04-01T00:38:18;7.70;99.90
1806;DHT22;901;48.142;11.516;2023-04-01T00:40:45;7.70;99.90
1806;DHT22;901;48.142;11.516;2023-04-01T00:43:14;7.60;99.90
1806;DHT22;901;48.142;11.516;2023-04-01T00:45:44;7.60;99.90
1806;DHT22;901;48.142;11.516;2023-04-01T00:48:14;7.60;99.90
1806;DHT22;901;48.142;11.516;2023-04-01T00:50:46;7.60;99.90
1806;DHT22;901;48.142;11.516;2023-04-01T00:53:14;7.60;99.90
1806;DHT22;901;48.142;11.516;2023-04-01T00:55:49;7.60;99.90
1806;DHT22;901;48.142;11.516;2023-04-01T00:58:19;7.60;99.90
1806;DHT22;901;48.142;11.516;2023-04-01T01:00:47;7.60;99.90
1806;DHT22;901;48.142;11.516;2023-04-01T01:03:16;7.70;99.90
1806;DHT22;901;48.142;11.516;2023-04-01T01:06:04;7.70;99.90
1806;DHT22;901;48.142;11.516;2023-04-01T01:08:52;7.80;99.90
1806;DHT22;901;48.142;11.516;2023-04-01T01:11:32;7.80;99.90
1806;DHT22;901;48.142;11.516;2023-04-01T01:14:07;7.80;99.90
1806;DHT22;901;48.142;11.516;2023-04-01T01:16:42;7.80;99.90
1806;DHT22;901;48.142;11.516;2023-04-01T01:19:20;7.90;99.90
1806;DHT22;901;48.142;11.516;2023-04-01T01:22:11;7.90;99.90
1806;DHT22;901;48.142;11.516;2023-04-01T01:24:55;8.00;99.90
1806;DHT22;901;48.142;11.516;2023-04-01T01:27:31;8.00;99.90
1806;DHT22;901;48.142;11.516;2023-04-01T01:30:21;8.00;99.90
1806;DHT22;901;48.142;11.516;2023-04-01T01:33:17;8.10;99.90
1806;DHT22;901;48.142;11.516;2023-04-01T01:35:48;8.10;99.90
1806;DHT22;901;48.142;11.516;2023-04-01T01:38:17;8.10;99.90
1806;DHT22;901;48.142;11.516;2023-04-01T01:40:48;8.00;99.90
1806;DHT22;901;48.142;11.516;2023-04-01T01:43:22;8.00;99.90
1806;DHT22;901;48.142;11.516;2023-04-01T01:45:52;7.90;99.90
1806;DHT22;901;48.142;11.516;2023-04-01T01:48:21;7.80;99.90
1806;DHT22;901;48.142;11.516;2023-04-01T01:50:50;7.90;99.90
1806;DHT22;901;48.142;11.516;2023-04-01T01:53:17;7.80;99.90
1806;DHT22;901;48.142;11.516;2023-04-01T01:55:45;7.90;99.90
1806;DHT22;901;48.142;11.516;2023-04-01T01:58:17;7.90;99.90
1806;DHT22;901;48.142;11.516;2023-04-01T02:00:48;7.90;99.90
1806;DHT22;901;48.142;11.516;2023-04-01T02:03:17;7.90;99.90
1806;DHT22;901;48.142;11.516;2023-04-01T02:05:46;7.90;99.90
1806;DHT22;901;48.142;11.516;2023-04-01T02:08:17;7.80;99.90
1806;DHT22;901;48.142;11.516;2023-04-01T02:10:52;7.80;99.90
1806;DHT22;901;48.142;11.516;2023-04-01T02:13:28;7.80;99.90
1806;DHT22;901;48.142;11.516;2023-04-01T02:16:00;7.90;99.90
1806;DHT22;901;48.142;11.516;2023-04-01T02:18:30;7.90;99.90
1806;DHT22;901;48.142;11.516;2023-04-01T02:21:00;7.90;99.90
1806;DHT22;901;48.142;11.516;2023-04-01T02:23:29;7.90;99.90
1806;DHT22;901;48.142;11.516;2023-04-01T02:25:56;7.80;99.90
1806;DHT22;901;48.142;11.516;2023-04-01T02:28:23;7.80;99.90
1806;DHT22;901;48.142;11.516;2023-04-01T02:30:51;7.80;99.90
1806;DHT22;901;48.142;11.516;2023-04-01T02:33:19;7.80;99.90
1806;DHT22;901;48.142;11.516;2023-04-01T02:35:47;7.80;99.90
1806;DHT22;901;48.142;11.516;2023-04-01T02:38:14;7.80;99.90
1806;DHT22;901;48.142;11.516;2023-04-01T02:40:45;7.80;99.90
1806;DHT22;901;48.142;11.516;2023-04-01T02:43:13;7.80;99.90
1806;DHT22;901;48.142;11.516;2023-04-01T02:45:40;7.80;99.90
1806;DHT22;901;48.142;11.516;2023-04-01T02:48:08;7.80;99.90
1806;DHT22;901;48.142;11.516;2023-04-01T02:50:34;7.80;99.90
1806;DHT22;901;48.142;11.516;2023-04-01T02:53:01;7.80;99.90
1806;DHT22;901;48.142;11.516;2023-04-01T02:55:29;7.80;99.90
1806;DHT22;901;48.142;11.516;2023-04-01T02:57:57;7.80;99.90
1806;DHT22;901;48.142;11.516;2023-04-01T03:00:24;7.80;99.90
1806;DHT22;901;48.142;11.516;2023-04-01T03:02:51;7.80;99.90
1806;DHT22;901;48.142;11.516;2023-04-01T03:05:18;7.80;99.90
1806;DHT22;901;48.142;11.516;2023-04-01T03:07:45;7.80;99.90
1806;DHT22;901;48.142;11.516;2023-04-01T03:10:12;7.80;99.90
1806;DHT22;901;48.142;11.516;2023-04-01T03:12:39;7.80;99.90
1806;DHT22;901;48.142;11.516;2023-04-01T03:15:09;7.80;99.90
1806;DHT22;901;48.142;11.516;2023-04-01T03:17:36;7.80;99.90
1806;DHT22;901;48.142;11.516;2023-04-01T03:20:04;7.80;99.90
1806;DHT22;901;48.142;11.516;2023-04-01T03:22:31;7.80;99.90
1806;DHT22;901;48.142;11.516;2023-04-01T03:24:58;7.90;99.90
1806;DHT22;901;48.142;11.516;2023-04-01T03:27:24;7.80;99.90
1806;DHT22;901;48.142;11.516;2023-04-01T03:29:51;7.70;99.90
1806;DHT22;901;48.142;11.516;2023-04-01T03:32:19;7.70;99.90
1806;DHT22;901;48.142;11.516;2023-04-01T03:34:46;7.60;99.90
1806;DHT22;901;48.142;11.516;2023-04-01T03:37:13;7.50;99.90
1806;DHT22;901;48.142;11.516;2023-04-01T03:39:40;7.40;99.90
1806;DHT22;901;48.142;11.516;2023-04-01T03:42:07;7.40;99.90
1806;DHT22;901;48.142;11.516;2023-04-01T03:44:34;7.30;99.90
1806;DHT22;901;48.142;11.516;2023-04-01T03:47:00;7.30;99.90
1806;DHT22;901;48.142;11.516;2023-04-01T03:49:29;7.30;99.90
1806;DHT22;901;48.142;11.516;2023-04-01T03:51:57;7.30;99.90
1806;DHT22;901;48.142;11.516;2023-04-01T03:54:24;7.30;99.90
1806;DHT22;901;48.142;11.516;2023-04-01T03:56:51;7.30;99.90
1806;DHT22;901;48.142;11.516;2023-04-01T03:59:18;7.30;99.90
1806;DHT22;901;48.142;11.516;2023-04-01T04:01:46;7.30;99.90
1806;DHT22;901;48.142;11.516;2023-04-01T04:04:13;7.20;99.90
1806;DHT22;901;48.142;11.516;2023-04-01T04:06:41;7.20;99.90
1806;DHT22;901;48.142;11.516;2023-04-01T04:09:08;7.20;99.90
1806;DHT22;901;48.142;11.516;2023-04-01T04:11:35;7.20;99.90
1806;DHT22;901;48.142;11.516;2023-04-01T04:14:01;7.20;99.90
1806;DHT22;901;48.142;11.516;2023-04-01T04:16:28;7.10;99.90
1806;DHT22;901;48.142;11.516;2023-04-01T04:18:55;7.20;99.90
1806;DHT22;901;48.142;11.516;2023-04-01T04:21:22;7.20;99.90
1806;DHT22;901;48.142;11.516;2023-04-01T04:23:50;7.30;99.90
1806;DHT22;901;48.142;11.516;2023-04-01T04:26:17;7.30;99.90
1806;DHT22;901;48.142;11.516;2023-04-01T04:28:44;7.40;99.90
1806;DHT22;901;48.142;11.516;2023-04-01T04:31:11;7.40;99.90
1806;DHT22;901;48.142;11.516;2023-04-01T04:33:38;7.40;99.90
1806;DHT22;901;48.142;11.516;2023-04-01T04:36:05;7.40;99.90
1806;DHT22;901;48.142;11.516;2023-04-01T04:38:32;7.40;99.90
1806;DHT22;901;48.142;11.516;2023-04-01T04:41:00;7.40;99.90
1806;DHT22;901;48.142;11.516;2023-04-01T04:43:27;7.40;99.90
1806;DHT22;901;48.142;11.516;2023-04-01T04:45:54;7.50;99.90
1806;DHT22;901;48.142;11.516;2023-04-01T04:48:21;7.50;99.90
1806;DHT22;901;48.142;11.516;2023-04-01T04:50:49;7.60;99.90
1806;DHT22;901;48.142;11.516;2023-04-01T04:53:17;7.60;99.90
1806;DHT22;901;48.142;11.516;2023-04-01T04:55:44;7.60;99.90
1806;DHT22;901;48.142;11.516;2023-04-01T04:58:13;7.70;99.90
1806;DHT22;901;48.142;11.516;2023-04-01T05:00:40;7.70;99.90
1806;DHT22;901;48.142;11.516;2023-04-01T05:03:06;7.80;99.90
1806;DHT22;901;48.142;11.516;2023-04-01T05:05:33;7.80;99.90
1806;DHT22;901;48.142;11.516;2023-04-01T05:08:00;7.90;99.90
1806;DHT22;901;48.142;11.516;2023-04-01T05:10:27;7.90;99.90
1806;DHT22;901;48.142;11.516;2023-04-01T05:12:54;8.00;99.90
1806;DHT22;901;48.142;11.516;2023-04-01T05:15:22;8.00;99.90
1806;DHT22;901;48.142;11.516;2023-04-01T05:17:49;8.00;99.90
1806;DHT22;901;48.142;11.516;2023-04-01T05:20:16;8.10;99.90
1806;DHT22;901;48.142;11.516;2023-04-01T05:22:43;8.10;99.90
1806;DHT22;901;48.142;11.516;2023-04-01T05:25:10;8.10;99.90
1806;DHT22;901;48.142;11.516;2023-04-01T05:27:36;8.20;99.90
1806;DHT22;901;48.142;11.516;2023-04-01T05:30:04;8.20;99.90
1806;DHT22;901;48.142;11.516;2023-04-01T05:32:33;8.20;99.90
1806;DHT22;901;48.142;11.516;2023-04-01T05:35:00;8.20;99.90
1806;DHT22;901;48.142;11.516;2023-04-01T05:37:26;8.30;99.90
1806;DHT22;901;48.142;11.516;2023-04-01T05:39:53;8.40;99.90
1806;DHT22;901;48.142;11.516;2023-04-01T05:42:20;8.40;99.90
1806;DHT22;901;48.142;11.516;2023-04-01T05:44:47;8.40;99.90
1806;DHT22;901;48.142;11.516;2023-04-01T05:47:13;8.40;99.90
1806;DHT22;901;48.142;11.516;2023-04-01T05:49:41;8.40;99.90
1806;DHT22;901;48.142;11.516;2023-04-01T05:52:08;8.50;99.90
1806;DHT22;901;48.142;11.516;2023-04-01T05:54:35;8.50;99.90
1806;DHT22;901;48.142;11.516;2023-04-01T05:57:03;8.60;99.90
1806;DHT22;901;48.142;11.516;2023-04-01T05:59:29;8.60;99.90
1806;DHT22;901;48.142;11.516;2023-04-01T06:01:57;8.70;99.90
1806;DHT22;901;48.142;11.516;2023-04-01T06:04:24;8.70;99.90
1806;DHT22;901;48.142;11.516;2023-04-01T06:06:53;8.80;99.90
1806;DHT22;901;48.142;11.516;2023-04-01T06:09:26;8.80;99.90
1806;DHT22;901;48.142;11.516;2023-04-01T06:12:21;8.70;99.90
1806;DHT22;901;48.142;11.516;2023-04-01T06:14:55;8.80;99.90
1806;DHT22;901;48.142;11.516;2023-04-01T06:17:30;8.80;99.90
1806;DHT22;901;48.142;11.516;2023-04-01T06:20:05;8.70;99.90
1806;DHT22;901;48.142;11.516;2023-04-01T06:22:47;8.80;99.90
1806;DHT22;901;48.142;11.516;2023-04-01T06:25:30;8.80;99.90
1806;DHT22;901;48.142;11.516;2023-04-01T06:31:05;8.90;99.90
1806;DHT22;901;48.142;11.516;2023-04-01T06:33:46;8.90;99.90
1806;DHT22;901;48.142;11.516;2023-04-01T06:36:31;8.90;99.90
1806;DHT22;901;48.142;11.516;2023-04-01T06:39:25;8.90;99.90
1806;DHT22;901;48.142;11.516;2023-04-01T06:42:18;9.00;99.90
1806;DHT22;901;48.142;11.516;2023-04-01T06:44:56;9.00;99.90
1806;DHT22;901;48.142;11.516;2023-04-01T06:47:35;9.00;99.90
1806;DHT22;901;48.142;11.516;2023-04-01T06:50:08;9.10;99.90
1806;DHT22;901;48.142;11.516;2023-04-01T06:52:46;9.20;99.90
1806;DHT22;901;48.142;11.516;2023-04-01T06:55:27;9.20;99.90
1806;DHT22;901;48.142;11.516;2023-04-01T06:57:59;9.30;99.90
1806;DHT22;901;48.142;11.516;2023-04-01T07:00:30;9.50;99.90
1806;DHT22;901;48.142;11.516;2023-04-01T07:03:05;9.70;99.90
1806;DHT22;901;48.142;11.516;2023-04-01T07:05:36;9.90;99.90
1806;DHT22;901;48.142;11.516;2023-04-01T07:08:06;10.00;99.90
1806;DHT22;901;48.142;11.516;2023-04-01T07:10:43;10.20;99.90
1806;DHT22;901;48.142;11.516;2023-04-01T07:13:15;10.30;99.90
1806;DHT22;901;48.142;11.516;2023-04-01T07:15:54;10.40;99.90
1806;DHT22;901;48.142;11.516;2023-04-01T07:18:28;10.40;99.90
1806;DHT22;901;48.142;11.516;2023-04-01T07:20:57;10.60;99.90
1806;DHT22;901;48.142;11.516;2023-04-01T07:23:26;10.60;99.90
1806;DHT22;901;48.142;11.516;2023-04-01T07:26:00;10.60;99.90
1806;DHT22;901;48.142;11.516;2023-04-01T07:28:31;10.80;99.90
1806;DHT22;901;48.142;11.516;2023-04-01T07:31:07;10.80;99.90
1806;DHT22;901;48.142;11.516;2023-04-01T07:33:41;10.80;99.90
1806;DHT22;901;48.142;11.516;2023-04-01T07:36:14;10.90;99.90
1806;DHT22;901;48.142;11.516;2023-04-01T07:38:52;10.90;99.90
1806;DHT22;901;48.142;11.516;2023-04-01T07:41:29;11.00;99.90
1806;DHT22;901;48.142;11.516;2023-04-01T07:44:08;11.20;99.90
1806;DHT22;901;48.142;11.516;2023-04-01T07:47:01;11.30;99.90
1806;DHT22;901;48.142;11.516;2023-04-01T07:49:38;11.40;99.90
1806;DHT22;901;48.142;11.516;2023-04-01T07:52:15;11.30;99.90
1806;DHT22;901;48.142;11.516;2023-04-01T07:54:49;11.40;99.90
1806;DHT22;901;48.142;11.516;2023-04-01T07:57:21;11.40;99.90
1806;DHT22;901;48.142;11.516;2023-04-01T07:59:58;11.50;99.90
1806;DHT22;901;48.142;11.516;2023-04-01T08:02:35;11.60;99.90
1806;DHT22;901;48.142;11.516;2023-04-01T08:05:09;11.70;99.90
1806;DHT22;901;48.142;11.516;2023-04-01T08:07:45;11.70;99.90
1806;DHT22;901;48.142;11.516;2023-04-01T08:10:19;11.60;99.90
1806;DHT22;901;48.142;11.516;2023-04-01T08:12:59;11.60;99.90
1806;DHT22;901;48.142;11.516;2023-04-01T08:15:29;11.70;99.90
1806;DHT22;901;48.142;11.516;2023-04-01T08:18:09;11.70;99.90
1806;DHT22;901;48.142;11.516;2023-04-01T08:20:41;11.60;99.90
1806;DHT22;901;48.142;11.516;2023-04-01T08:23:14;11.70;99.90
1806;DHT22;901;48.142;11.516;2023-04-01T08:25:46;11.70;99.90
1806;DHT22;901;48.142;11.516;2023-04-01T08:28:21;11.90;99.90
1806;DHT22;901;48.142;11.516;2023-04-01T08:30:53;12.00;99.90
1806;DHT22;901;48.142;11.516;2023-04-01T08:33:25;11.90;99.90
1806;DHT22;901;48.142;11.516;2023-04-01T08:35:56;11.90;99.90
1806;DHT22;901;48.142;11.516;2023-04-01T08:38:28;11.80;99.90
1806;DHT22;901;48.142;11.516;2023-04-01T08:41:30;12.00;99.90
1806;DHT22;901;48.142;11.516;2023-04-01T08:44:39;12.30;99.90
1806;DHT22;901;48.142;11.516;2023-04-01T08:47:24;12.50;99.90
1806;DHT22;901;48.142;11.516;2023-04-01T08:53:00;12.80;99.90
1806;DHT22;901;48.142;11.516;2023-04-01T08:55:40;12.80;99.90
1806;DHT22;901;48.142;11.516;2023-04-01T08:58:47;12.80;99.90
1806;DHT22;901;48.142;11.516;2023-04-01T09:01:33;12.90;99.90
1806;DHT22;901;48.142;11.516;2023-04-01T09:04:25;12.90;99.90
1806;DHT22;901;48.142;11.516;2023-04-01T09:07:07;13.10;99.90
1806;DHT22;901;48.142;11.516;2023-04-01T09:10:05;13.20;99.90
1806;DHT22;901;48.142;11.516;2023-04-01T09:12:54;13.30;99.90
1806;DHT22;901;48.142;11.516;2023-04-01T09:15:36;13.30;99.90
1806;DHT22;901;48.142;11.516;2023-04-01T09:18:28;13.40;99.90
1806;DHT22;901;48.142;11.516;2023-04-01T09:21:09;13.40;99.90
1806;DHT22;901;48.142;11.516;2023-04-01T09:23:51;13.30;99.90
1806;DHT22;901;48.142;11.516;2023-04-01T09:26:33;13.30;99.90
1806;DHT22;901;48.142;11.516;2023-04-01T09:29:09;13.20;99.90
1806;DHT22;901;48.142;11.516;2023-04-01T09:37:45;13.30;99.90
1806;DHT22;901;48.142;11.516;2023-04-01T09:40:18;13.50;99.90
1806;DHT22;901;48.142;11.516;2023-04-01T09:46:06;13.80;99.90
1806;DHT22;901;48.142;11.516;2023-04-01T09:49:09;13.80;99.90
1806;DHT22;901;48.142;11.516;2023-04-01T09:51:45;14.00;99.90
1806;DHT22;901;48.142;11.516;2023-04-01T09:54:34;14.30;99.90
1806;DHT22;901;48.142;11.516;2023-04-01T10:00:35;14.60;99.90
1806;DHT22;901;48.142;11.516;2023-04-01T10:09:54;14.60;99.90
1806;DHT22;901;48.142;11.516;2023-04-01T10:12:49;14.70;99.90
1806;DHT22;901;48.142;11.516;2023-04-01T10:18:41;14.30;99.90
1806;DHT22;901;48.142;11.516;2023-04-01T10:21:37;14.30;99.90
1806;DHT22;901;48.142;11.516;2023-04-01T10:24:30;14.30;99.90
1806;DHT22;901;48.142;11.516;2023-04-01T10:27:21;14.30;99.90
1806;DHT22;901;48.142;11.516;2023-04-01T10:36:25;14.40;99.90
1806;DHT22;901;48.142;11.516;2023-04-01T10:39:34;14.40;99.90
1806;DHT22;901;48.142;11.516;2023-04-01T10:46:00;14.60;99.90
1806;DHT22;901;48.142;11.516;2023-04-01T10:49:05;14.30;99.90
1806;DHT22;901;48.142;11.516;2023-04-01T10:52:02;14.00;99.90
1806;DHT22;901;48.142;11.516;2023-04-01T10:54:45;13.60;99.90
1806;DHT22;901;48.142;11.516;2023-04-01T10:57:32;13.40;99.90
1806;DHT22;901;48.142;11.516;2023-04-01T11:00:23;13.20;99.90
1806;DHT22;901;48.142;11.516;2023-04-01T11:12:43;12.50;99.90
1806;DHT22;901;48.142;11.516;2023-04-01T11:15:46;12.40;99.90
1806;DHT22;901;48.142;11.516;2023-04-01T11:18:49;12.50;99.90
1806;DHT22;901;48.142;11.516;2023-04-01T11:21:50;12.50;99.90
1806;DHT22;901;48.142;11.516;2023-04-01T11:24:36;12.60;99.90
1806;DHT22;901;48.142;11.516;2023-04-01T11:27:18;12.60;99.90
1806;DHT22;901;48.142;11.516;2023-04-01T11:30:07;12.50;99.90
1806;DHT22;901;48.142;11.516;2023-04-01T11:32:43;12.70;99.90
1806;DHT22;901;48.142;11.516;2023-04-01T11:35:34;12.70;99.90
1806;DHT22;901;48.142;11.516;2023-04-01T11:38:17;12.70;99.90
1806;DHT22;901;48.142;11.516;2023-04-01T11:40:51;12.60;99.90
1806;DHT22;901;48.142;11.516;2023-04-01T11:43:25;12.50;99.90
1806;DHT22;901;48.142;11.516;2023-04-01T11:46:02;12.50;99.90
1806;DHT22;901;48.142;11.516;2023-04-01T11:48:41;12.40;99.90
1806;DHT22;901;48.142;11.516;2023-04-01T11:51:34;12.20;99.90
1806;DHT22;901;48.142;11.516;2023-04-01T11:54:17;11.80;99.90
1806;DHT22;901;48.142;11.516;2023-04-01T11:57:02;11.80;99.90
1806;DHT22;901;48.142;11.516;2023-04-01T11:59:49;11.80;99.90
1806;DHT22;901;48.142;11.516;2023-04-01T12:02:28;11.70;99.90
1806;DHT22;901;48.142;11.516;2023-04-01T12:05:15;11.50;99.90
1806;DHT22;901;48.142;11.516;2023-04-01T12:08:02;11.30;99.90
1806;DHT22;901;48.142;11.516;2023-04-01T12:10:38;11.20;99.90
1806;DHT22;901;48.142;11.516;2023-04-01T12:13:20;11.10;99.90
1806;DHT22;901;48.142;11.516;2023-04-01T12:16:03;11.20;99.90
1806;DHT22;901;48.142;11.516;2023-04-01T12:18:37;11.00;99.90
1806;DHT22;901;48.142;11.516;2023-04-01T12:21:16;10.90;99.90
1806;DHT22;901;48.142;11.516;2023-04-01T12:24:20;10.80;99.90
1806;DHT22;901;48.142;11.516;2023-04-01T12:27:20;10.70;99.90
1806;DHT22;901;48.142;11.516;2023-04-01T12:30:20;10.70;99.90
1806;DHT22;901;48.142;11.516;2023-04-01T12:33:01;10.60;99.90
1806;DHT22;901;48.142;11.516;2023-04-01T12:35:42;10.60;99.90
1806;DHT22;901;48.142;11.516;2023-04-01T12:38:21;10.40;99.90
1806;DHT22;901;48.142;11.516;2023-04-01T12:41:08;10.50;99.90
1806;DHT22;901;48.142;11.516;2023-04-01T12:44:13;10.40;99.90
1806;DHT22;901;48.142;11.516;2023-04-01T12:46:54;10.30;99.90
1806;DHT22;901;48.142;11.516;2023-04-01T12:49:36;10.20;99.90
1806;DHT22;901;48.142;11.516;2023-04-01T12:52:13;10.20;99.90
1806;DHT22;901;48.142;11.516;2023-04-01T12:55:19;10.20;99.90
1806;DHT22;901;48.142;11.516;2023-04-01T12:58:20;10.10;99.90
1806;DHT22;901;48.142;11.516;2023-04-01T13:01:08;10.10;99.90
1806;DHT22;901;48.142;11.516;2023-04-01T13:06:52;10.10;99.90
1806;DHT22;901;48.142;11.516;2023-04-01T13:09:35;10.10;99.90
1806;DHT22;901;48.142;11.516;2023-04-01T13:12:20;10.00;99.90
1806;DHT22;901;48.142;11.516;2023-04-01T13:15:17;10.00;99.90
1806;DHT22;901;48.142;11.516;2023-04-01T13:17:53;10.00;99.90
1806;DHT22;901;48.142;11.516;2023-04-01T13:20:28;10.10;99.90
1806;DHT22;901;48.142;11.516;2023-04-01T13:23:05;10.00;99.90
1806;DHT22;901;48.142;11.516;2023-04-01T13:25:38;10.00;99.90
1806;DHT22;901;48.142;11.516;2023-04-01T13:28:12;10.00;99.90
1806;DHT22;901;48.142;11.516;2023-04-01T13:30:45;10.10;99.90
1806;DHT22;901;48.142;11.516;2023-04-01T13:33:19;10.10;99.90
1806;DHT22;901;48.142;11.516;2023-04-01T13:36:01;10.10;99.90
1806;DHT22;901;48.142;11.516;2023-04-01T13:38:48;10.00;99.90
1806;DHT22;901;48.142;11.516;2023-04-01T13:41:29;9.90;99.90
1806;DHT22;901;48.142;11.516;2023-04-01T13:44:02;9.90;99.90
1806;DHT22;901;48.142;11.516;2023-04-01T13:47:04;9.90;99.90
1806;DHT22;901;48.142;11.516;2023-04-01T13:52:59;10.00;99.90
1806;DHT22;901;48.142;11.516;2023-04-01T13:55:46;10.10;99.90
1806;DHT22;901;48.142;11.516;2023-04-01T13:58:48;10.20;99.90
1806;DHT22;901;48.142;11.516;2023-04-01T14:01:25;10.20;99.90
1806;DHT22;901;48.142;11.516;2023-04-01T14:07:14;10.40;99.90
1806;DHT22;901;48.142;11.516;2023-04-01T14:09:50;10.40;99.90
1806;DHT22;901;48.142;11.516;2023-04-01T14:12:29;10.50;99.90
1806;DHT22;901;48.142;11.516;2023-04-01T14:15:14;10.60;99.90
1806;DHT22;901;48.142;11.516;2023-04-01T14:17:58;10.70;99.90
1806;DHT22;901;48.142;11.516;2023-04-01T14:20:36;10.80;99.90
1806;DHT22;901;48.142;11.516;2023-04-01T14:23:16;10.70;99.90
1806;DHT22;901;48.142;11.516;2023-04-01T14:26:10;10.70;99.90
1806;DHT22;901;48.142;11.516;2023-04-01T14:28:43;10.70;99.90
1806;DHT22;901;48.142;11.516;2023-04-01T14:31:39;10.70;99.90
1806;DHT22;901;48.142;11.516;2023-04-01T14:34:19;10.60;99.90
1806;DHT22;901;48.142;11.516;2023-04-01T14:36:57;10.70;99.90
1806;DHT22;901;48.142;11.516;2023-04-01T14:39:49;10.80;99.90
1806;DHT22;901;48.142;11.516;2023-04-01T14:42:32;10.90;99.90
1806;DHT22;901;48.142;11.516;2023-04-01T14:45:24;11.00;99.90
1806;DHT22;901;48.142;11.516;2023-04-01T14:47:58;11.20;99.90
1806;DHT22;901;48.142;11.516;2023-04-01T14:50:28;11.10;99.90
1806;DHT22;901;48.142;11.516;2023-04-01T14:52:59;11.10;99.90
1806;DHT22;901;48.142;11.516;2023-04-01T14:55:31;11.10;99.90
1806;DHT22;901;48.142;11.516;2023-04-01T14:58:08;11.10;99.90
1806;DHT22;901;48.142;11.516;2023-04-01T15:00:48;11.10;99.90
1806;DHT22;901;48.142;11.516;2023-04-01T15:03:24;11.10;99.90
1806;DHT22;901;48.142;11.516;2023-04-01T15:05:56;11.00;99.90
1806;DHT22;901;48.142;11.516;2023-04-01T15:08:25;11.00;99.90
1806;DHT22;901;48.142;11.516;2023-04-01T15:11:17;11.00;99.90
1806;DHT22;901;48.142;11.516;2023-04-01T15:14:09;10.90;99.90
1806;DHT22;901;48.142;11.516;2023-04-01T15:16:44;10.80;99.90
1806;DHT22;901;48.142;11.516;2023-04-01T15:19:19;10.80;99.90
1806;DHT22;901;48.142;11.516;2023-04-01T15:22:13;10.80;99.90
1806;DHT22;901;48.142;11.516;2023-04-01T15:24:47;10.80;99.90
1806;DHT22;901;48.142;11.516;2023-04-01T15:27:29;10.80;99.90
1806;DHT22;901;48.142;11.516;2023-04-01T15:30:17;10.70;99.90
1806;DHT22;901;48.142;11.516;2023-04-01T15:32:54;10.80;99.90
1806;DHT22;901;48.142;11.516;2023-04-01T15:35:33;10.80;99.90
1806;DHT22;901;48.142;11.516;2023-04-01T15:38:06;10.90;99.90
1806;DHT22;901;48.142;11.516;2023-04-01T15:40:41;10.90;99.90
1806;DHT22;901;48.142;11.516;2023-04-01T15:43:27;11.00;99.90
1806;DHT22;901;48.142;11.516;2023-04-01T15:49:02;11.00;99.90
1806;DHT22;901;48.142;11.516;2023-04-01T15:51:51;11.00;99.90
1806;DHT22;901;48.142;11.516;2023-04-01T15:54:47;11.10;99.90
1806;DHT22;901;48.142;11.516;2023-04-01T15:57:25;11.20;99.90
1806;DHT22;901;48.142;11.516;2023-04-01T16:02:46;11.00;99.90
1806;DHT22;901;48.142;11.516;2023-04-01T16:05:30;11.00;99.90
1806;DHT22;901;48.142;11.516;2023-04-01T16:08:21;11.00;99.90
1806;DHT22;901;48.142;11.516;2023-04-01T16:10:57;11.00;99.90
1806;DHT22;901;48.142;11.516;2023-04-01T16:13:35;11.00;99.90
1806;DHT22;901;48.142;11.516;2023-04-01T16:16:17;10.90;99.90
1806;DHT22;901;48.142;11.516;2023-04-01T16:18:58;11.00;99.90
1806;DHT22;901;48.142;11.516;2023-04-01T16:21:37;11.00;99.90
1806;DHT22;901;48.142;11.516;2023-04-01T16:24:17;11.00;99.90
1806;DHT22;901;48.142;11.516;2023-04-01T16:26:52;11.00;99.90
1806;DHT22;901;48.142;11.516;2023-04-01T16:29:27;11.00;99.90
1806;DHT22;901;48.142;11.516;2023-04-01T16:32:12;10.90;99.90
1806;DHT22;901;48.142;11.516;2023-04-01T16:34:46;10.80;99.90
1806;DHT22;901;48.142;11.516;2023-04-01T16:37:19;10.70;99.90
1806;DHT22;901;48.142;11.516;2023-04-01T16:39:53;10.70;99.90
1806;DHT22;901;48.142;11.516;2023-04-01T16:42:31;10.70;99.90
1806;DHT22;901;48.142;11.516;2023-04-01T16:45:06;10.60;99.90
1806;DHT22;901;48.142;11.516;2023-04-01T16:47:39;10.50;99.90
1806;DHT22;901;48.142;11.516;2023-04-01T16:50:14;10.50;99.90
1806;DHT22;901;48.142;11.516;2023-04-01T16:52:54;10.50;99.90
1806;DHT22;901;48.142;11.516;2023-04-01T16:55:35;10.50;99.90
1806;DHT22;901;48.142;11.516;2023-04-01T16:58:02;10.40;99.90
1806;DHT22;901;48.142;11.516;2023-04-01T17:00:36;10.30;99.90
1806;DHT22;901;48.142;11.516;2023-04-01T17:03:11;10.30;99.90
1806;DHT22;901;48.142;11.516;2023-04-01T17:05:52;10.20;99.90
1806;DHT22;901;48.142;11.516;2023-04-01T17:08:31;10.10;99.90
1806;DHT22;901;48.142;11.516;2023-04-01T17:11:07;10.10;99.90
1806;DHT22;901;48.142;11.516;2023-04-01T17:13:42;10.10;99.90
1806;DHT22;901;48.142;11.516;2023-04-01T17:16:28;10.10;99.90
1806;DHT22;901;48.142;11.516;2023-04-01T17:19:02;10.00;99.90
1806;DHT22;901;48.142;11.516;2023-04-01T17:21:48;9.90;99.90
1806;DHT22;901;48.142;11.516;2023-04-01T17:24:28;9.90;99.90
1806;DHT22;901;48.142;11.516;2023-04-01T17:27:06;9.90;99.90
1806;DHT22;901;48.142;11.516;2023-04-01T17:29:42;9.90;99.90
1806;DHT22;901;48.142;11.516;2023-04-01T17:32:15;9.80;99.90
1806;DHT22;901;48.142;11.516;2023-04-01T17:34:52;9.80;99.90
1806;DHT22;901;48.142;11.516;2023-04-01T17:37:30;9.80;99.90
1806;DHT22;901;48.142;11.516;2023-04-01T17:42:57;9.80;99.90
1806;DHT22;901;48.142;11.516;2023-04-01T17:45:30;9.80;99.90
1806;DHT22;901;48.142;11.516;2023-04-01T17:48:03;9.80;99.90
1806;DHT22;901;48.142;11.516;2023-04-01T17:50:59;9.70;99.90
1806;DHT22;901;48.142;11.516;2023-04-01T17:53:36;9.70;99.90
1806;DHT22;901;48.142;11.516;2023-04-01T17:56:14;9.70;99.90
1806;DHT22;901;48.142;11.516;2023-04-01T17:58:46;9.70;99.90
1806;DHT22;901;48.142;11.516;2023-04-01T18:01:21;9.70;99.90
1806;DHT22;901;48.142;11.516;2023-04-01T18:04:18;9.70;99.90
1806;DHT22;901;48.142;11.516;2023-04-01T18:07:10;9.70;99.90
1806;DHT22;901;48.142;11.516;2023-04-01T18:09:51;9.70;99.90
1806;DHT22;901;48.142;11.516;2023-04-01T18:12:29;9.70;99.90
1806;DHT22;901;48.142;11.516;2023-04-01T18:15:22;9.70;99.90
1806;DHT22;901;48.142;11.516;2023-04-01T18:18:07;9.70;99.90